Time;durP1;ratioP1;P1;durP2;ratioP2;P2;SDS_P1;SDS_P2;PMS_P1;PMS_P2;Temp;Humidity;BMP_temperature;BMP_pressure;BME280_temperature;BME280_humidity;BME280_pressure;Samples;Min_cycle;Max_cycle;Signal;HPM_P1;HPM_P2
2022/10/03 00:02:30;;;;;;;3.83;3.53;;;;;;;17.80;48.38;99425.88;4972809;28;20184;-72
2022/10/03 00:05:15;;;;;;;3.37;3.07;;;;;;;17.87;48.53;99429.19;4973250;28;20250;-72
2022/10/03 00:08:01;;;;;;;2.83;2.63;;;;;;;17.95;47.33;99412.66;4973206;28;20255;-72
2022/10/03 00:10:38;;;;;;;2.60;2.40;;;;;;;18.00;48.30;99420.81;4973356;28;20196;-72
2022/10/03 00:13:19;;;;;;;3.67;2.43;;;;;;;18.17;47.52;99416.25;4972787;28;20191;-72
2022/10/03 00:15:54;;;;;;;2.80;2.57;;;;;;;18.23;47.59;99404.50;4972583;28;20189;-72
2022/10/03 00:18:37;;;;;;;2.40;2.20;;;;;;;18.20;46.70;99410.34;4972439;28;20191;-72
2022/10/03 00:21:17;;;;;;;2.50;1.90;;;;;;;17.95;47.02;99402.75;4972364;28;20572;-72
2022/10/03 00:23:52;;;;;;;2.07;1.97;;;;;;;17.88;46.51;99395.91;4972609;28;20183;-72
2022/10/03 00:26:27;;;;;;;3.13;2.40;;;;;;;17.85;46.77;99401.78;4972436;28;20192;-72
2022/10/03 00:29:09;;;;;;;3.13;2.83;;;;;;;17.86;46.89;99398.03;4972515;28;20761;-72
2022/10/03 00:31:47;;;;;;;2.77;2.53;;;;;;;17.87;47.19;99403.16;4972589;28;20191;-72
2022/10/03 00:34:25;;;;;;;3.93;2.90;;;;;;;17.88;47.48;99402.09;4972892;28;20192;-72
2022/10/03 00:37:10;;;;;;;3.20;2.57;;;;;;;17.69;47.46;99403.41;4974750;28;20191;-72
2022/10/03 00:39:49;;;;;;;2.20;2.10;;;;;;;17.63;47.63;99396.31;4975771;28;20191;-72
2022/10/03 00:42:44;;;;;;;2.60;2.40;;;;;;;17.66;47.99;99392.31;4975721;28;20187;-72
2022/10/03 00:45:44;;;;;;;2.77;2.57;;;;;;;17.67;48.31;99396.63;4975867;28;20651;-72
2022/10/03 00:48:38;;;;;;;2.13;2.03;;;;;;;17.74;48.20;99395.44;4975613;28;20746;-72
2022/10/03 00:51:25;;;;;;;2.20;2.00;;;;;;;17.78;48.47;99385.00;4976227;28;20191;-72
2022/10/03 00:54:03;;;;;;;2.43;2.23;;;;;;;17.64;48.56;99383.72;4975963;28;20231;-71
2022/10/03 00:56:49;;;;;;;1.90;1.80;;;;;;;17.74;48.47;99376.63;4975963;28;20196;-72
2022/10/03 00:59:32;;;;;;;1.97;1.87;;;;;;;17.90;49.00;99367.75;4976303;28;20188;-72
2022/10/03 01:02:21;;;;;;;1.87;1.77;;;;;;;18.03;48.53;99367.38;4975568;28;20660;-72
2022/10/03 01:05:00;;;;;;;1.87;1.70;;;;;;;18.13;48.94;99362.16;4975429;28;21037;-72
2022/10/03 01:07:56;;;;;;;2.53;1.40;;;;;;;18.13;48.84;99355.97;4975569;28;20188;-72
2022/10/03 01:10:34;;;;;;;1.93;1.73;;;;;;;18.21;48.86;99355.53;4975978;28;20183;-72
2022/10/03 01:13:20;;;;;;;5.57;1.57;;;;;;;18.34;48.35;99347.16;4975714;28;20278;-72
2022/10/03 01:15:56;;;;;;;1.93;1.30;;;;;;;18.42;48.41;99352.09;4975723;28;20183;-72
2022/10/03 01:18:36;;;;;;;1.53;1.30;;;;;;;18.45;48.58;99343.50;4975466;28;20255;-72
2022/10/03 01:21:12;;;;;;;2.20;1.50;;;;;;;18.45;49.15;99347.00;4975448;28;20621;-72
2022/10/03 01:24:05;;;;;;;2.17;1.57;;;;;;;18.43;48.73;99345.66;4975845;28;20188;-72
2022/10/03 01:26:58;;;;;;;1.70;1.60;;;;;;;18.30;49.12;99344.09;4975322;28;20192;-71
2022/10/03 01:32:29;;;;;;;2.77;1.50;;;;;;;18.23;50.16;99350.72;4975127;28;20238;-72
2022/10/03 01:35:06;;;;;;;2.00;1.80;;;;;;;18.17;50.37;99346.34;4975114;28;20565;-72
2022/10/03 01:37:43;;;;;;;2.80;1.80;;;;;;;18.14;50.24;99341.47;4975459;28;20278;-71
2022/10/03 01:40:22;;;;;;;1.37;1.37;;;;;;;18.09;50.40;99338.72;4974795;28;20628;-71
2022/10/03 01:43:10;;;;;;;2.47;1.27;;;;;;;18.06;50.81;99340.03;4975492;28;20187;-71
2022/10/03 01:45:46;;;;;;;2.33;1.60;;;;;;;17.96;51.08;99334.50;4974455;28;20189;-71
2022/10/03 01:48:22;;;;;;;2.67;1.50;;;;;;;17.89;51.10;99333.84;4974908;28;20303;-71
2022/10/03 01:50:58;;;;;;;1.70;1.60;;;;;;;17.88;51.31;99334.13;4974597;28;20195;-71
2022/10/03 01:53:38;;;;;;;2.27;1.50;;;;;;;17.84;51.75;99335.66;4974667;28;20323;-70
2022/10/03 01:56:12;;;;;;;2.03;1.40;;;;;;;17.81;51.70;99344.22;4974578;28;20262;-71
2022/10/03 01:58:50;;;;;;;5.40;1.70;;;;;;;17.75;52.38;99334.44;4974890;28;20243;-72
2022/10/03 02:01:26;;;;;;;2.23;1.60;;;;;;;17.71;52.49;99336.81;4974123;28;20222;-72
2022/10/03 02:04:03;;;;;;;1.50;1.40;;;;;;;17.62;52.75;99329.41;4974515;28;20194;-71
2022/10/03 02:06:42;;;;;;;4.37;1.70;;;;;;;17.58;53.21;99325.56;4974375;28;20614;-71
2022/10/03 02:09:18;;;;;;;1.60;1.50;;;;;;;17.50;53.38;99334.88;4974613;28;20215;-71
2022/10/03 02:12:05;;;;;;;5.70;1.90;;;;;;;17.39;53.82;99337.59;4974148;28;20191;-71
2022/10/03 02:14:41;;;;;;;2.33;1.90;;;;;;;17.31;54.00;99329.94;4975060;28;20201;-72
2022/10/03 02:17:21;;;;;;;4.10;1.80;;;;;;;17.25;54.65;99336.28;4974254;28;20191;-72
2022/10/03 02:19:57;;;;;;;3.80;1.53;;;;;;;17.15;54.60;99330.75;4975128;28;20192;-71
2022/10/03 02:22:36;;;;;;;1.80;1.70;;;;;;;17.12;54.89;99333.91;4974196;28;20193;-72
2022/10/03 02:25:18;;;;;;;2.13;1.63;;;;;;;17.01;55.08;99334.75;4974416;28;20710;-71
2022/10/03 02:28:09;;;;;;;2.23;1.90;;;;;;;16.89;55.58;99332.16;4974019;28;20196;-71
2022/10/03 02:30:47;;;;;;;2.63;1.90;;;;;;;16.89;56.07;99342.06;4973861;28;20250;-71
2022/10/03 02:33:52;;;;;;;2.20;1.70;;;;;;;16.88;56.47;99330.53;4974448;28;20265;-71
2022/10/03 02:36:58;;;;;;;1.80;1.70;;;;;;;16.87;56.73;99333.44;4941540;28;20262;-71
2022/10/03 02:40:00;;;;;;;3.13;2.37;;;;;;;16.82;56.93;99330.66;4988094;28;20190;-71
2022/10/03 02:42:50;;;;;;;5.33;2.93;;;;;;;16.80;57.10;99322.03;4992798;28;20664;-71
2022/10/03 02:46:01;;;;;;;3.30;2.80;;;;;;;16.80;56.77;99316.66;4993041;28;20318;-71
2022/10/03 02:49:03;;;;;;;4.43;2.90;;;;;;;16.82;57.25;99314.56;4993127;28;20298;-71
2022/10/03 02:51:58;;;;;;;2.90;2.70;;;;;;;16.83;56.72;99313.50;4992574;28;20594;-71
2022/10/03 02:54:52;;;;;;;6.07;3.20;;;;;;;16.79;57.52;99312.38;4993436;28;20253;-71
2022/10/03 02:57:52;;;;;;;6.70;2.70;;;;;;;16.78;57.61;99316.09;4993118;28;20249;-71
2022/10/03 03:00:20;;;;;;;2.87;2.50;;;;;;;16.80;57.32;99306.75;4980177;28;20714;-71
2022/10/03 03:03:29;;;;;;;5.10;3.63;;;;;;;16.77;57.40;99315.28;4993040;28;20279;-72
2022/10/03 03:06:31;;;;;;;9.43;3.50;;;;;;;16.71;57.13;99307.38;4993148;28;20193;-72
2022/10/03 03:09:36;;;;;;;4.70;3.17;;;;;;;16.72;56.51;99304.47;4993241;28;20210;-72
2022/10/03 03:12:34;;;;;;;6.30;3.70;;;;;;;16.69;56.35;99299.56;4993580;28;20194;-72
2022/10/03 03:15:45;;;;;;;3.80;3.43;;;;;;;16.68;55.78;99291.75;4992458;28;20278;-72
2022/10/03 03:18:21;;;;;;;7.83;3.57;;;;;;;16.67;55.81;99303.56;4992514;28;20205;-72
2022/10/03 03:20:58;;;;;;;5.03;4.00;;;;;;;16.68;55.81;99297.13;4992036;28;20562;-71
2022/10/03 03:24:02;;;;;;;4.17;3.83;;;;;;;16.58;55.58;99294.25;4992563;28;20255;-73
2022/10/03 03:27:04;;;;;;;5.27;4.77;;;;;;;16.58;55.62;99286.22;4976297;28;20187;-72
2022/10/03 03:29:42;;;;;;;5.63;4.90;;;;;;;16.50;54.86;99274.00;4913325;29;20220;-72
2022/10/03 03:32:21;;;;;;;5.57;4.87;;;;;;;16.50;55.22;99279.34;4966570;28;20230;-72
2022/10/03 03:34:59;;;;;;;5.50;5.00;;;;;;;16.42;55.65;99273.56;4972777;28;20238;-72
2022/10/03 03:37:34;;;;;;;8.03;6.53;;;;;;;16.40;55.79;99278.31;4972913;28;20187;-72
2022/10/03 03:40:22;;;;;;;7.23;6.63;;;;;;;16.32;55.69;99276.00;4972928;28;20281;-72
2022/10/03 03:43:09;;;;;;;7.30;6.60;;;;;;;16.28;55.97;99274.84;4973217;28;20201;-73
2022/10/03 03:46:01;;;;;;;9.20;6.70;;;;;;;16.25;56.23;99264.63;4972951;28;20193;-72
2022/10/03 03:48:52;;;;;;;6.83;6.20;;;;;;;16.30;56.25;99262.88;4972173;28;20219;-72
2022/10/03 03:51:31;;;;;;;7.43;6.73;;;;;;;16.22;56.09;99254.38;4973014;28;20258;-73
2022/10/03 03:54:34;;;;;;;8.47;6.13;;;;;;;16.26;56.56;99255.53;4972878;28;20234;-72
2022/10/03 03:57:22;;;;;;;10.33;9.10;;;;;;;16.19;56.29;99249.47;4949951;28;20289;-72
2022/10/03 04:00:06;;;;;;;13.77;8.37;;;;;;;16.14;56.61;99252.88;4972295;28;20235;-72
2022/10/03 04:02:45;;;;;;;7.97;7.23;;;;;;;16.11;56.30;99257.88;4989931;28;20246;-72
2022/10/03 04:05:26;;;;;;;10.47;7.40;;;;;;;16.02;57.02;99253.97;4992015;28;20201;-72
2022/10/03 04:08:15;;;;;;;13.43;7.20;;;;;;;15.83;57.76;99262.16;4992685;28;20196;-71
2022/10/03 04:10:53;;;;;;;10.57;8.83;;;;;;;15.67;58.14;99252.16;4992228;28;20570;-71
2022/10/03 04:13:55;;;;;;;12.20;9.07;;;;;;;15.66;58.31;99245.19;4996195;28;20186;-71
2022/10/03 04:19:41;;;;;;;19.67;10.77;;;;;;;15.85;58.25;99227.91;4995664;28;20198;-72
2022/10/03 04:22:21;;;;;;;34.63;17.67;;;;;;;15.85;57.75;99235.94;4972640;28;20254;-77
2022/10/03 04:25:21;;;;;;;42.27;22.57;;;;;;;15.93;58.21;99240.13;4974779;28;20271;-77
2022/10/03 04:28:05;;;;;;;35.73;20.27;;;;;;;16.10;58.49;99230.31;4975143;28;20207;-77
2022/10/03 04:30:40;;;;;;;39.07;19.80;;;;;;;16.34;59.29;99221.13;4975860;28;20215;-79
2022/10/03 04:33:20;;;;;;;24.13;16.00;;;;;;;16.49;56.92;99220.63;4975757;28;20242;-81
2022/10/03 04:36:18;;;;;;;21.77;13.47;;;;;;;16.50;55.40;99224.94;4976169;28;20188;-77
2022/10/03 04:38:53;;;;;;;29.13;14.20;;;;;;;16.43;55.34;99221.56;4976448;28;20234;-79
2022/10/03 04:41:29;;;;;;;22.47;11.83;;;;;;;16.32;56.14;99236.63;4975845;28;20327;-78
2022/10/03 04:44:08;;;;;;;24.17;13.07;;;;;;;16.35;56.63;99238.00;4975830;28;20623;-79
2022/10/03 04:46:43;;;;;;;26.00;12.77;;;;;;;16.41;56.12;99240.56;4975472;28;20644;-78
2022/10/03 04:49:17;;;;;;;25.07;9.77;;;;;;;16.32;55.58;99233.13;4976069;28;20270;-77
2022/10/03 04:51:55;;;;;;;14.83;7.70;;;;;;;16.45;57.03;99244.41;4975809;28;20652;-77
2022/10/03 04:54:31;;;;;;;28.33;7.63;;;;;;;16.53;56.68;99246.69;4975649;28;20180;-80
2022/10/03 04:57:04;;;;;;;10.10;5.07;;;;;;;16.58;56.74;99244.09;4976267;28;20191;-78
2022/10/03 04:59:47;;;;;;;3.93;3.50;;;;;;;16.49;55.58;99239.41;4975612;28;20621;-80
2022/10/03 05:02:37;;;;;;;9.80;3.60;;;;;;;16.35;55.91;99241.50;4989854;28;20653;-82
2022/10/03 05:05:46;;;;;;;4.87;4.07;;;;;;;16.35;56.36;99243.38;4995035;28;20255;-80
2022/10/03 05:08:24;;;;;;;6.43;4.10;;;;;;;16.59;56.42;99234.22;4987403;28;20289;-77
2022/10/03 05:11:06;;;;;;;8.67;4.60;;;;;;;16.77;55.71;99231.31;4994801;28;20190;-75
2022/10/03 05:13:48;;;;;;;4.53;4.10;;;;;;;16.90;55.91;99247.13;4994177;28;20195;-76
2022/10/03 05:16:21;;;;;;;11.17;4.10;;;;;;;17.04;54.94;99238.50;4994258;28;20183;-73
2022/10/03 05:18:57;;;;;;;18.77;5.07;;;;;;;17.18;54.33;99245.16;4994383;28;20198;-82
2022/10/03 05:21:33;;;;;;;7.03;4.30;;;;;;;17.35;54.12;99239.81;4992977;28;20240;-78
2022/10/03 05:24:16;;;;;;;5.03;3.60;;;;;;;17.43;53.19;99247.47;4990477;28;20255;-74
2022/10/03 05:26:50;;;;;;;8.73;4.03;;;;;;;17.55;54.37;99246.31;4974289;28;20270;-72
2022/10/03 05:29:28;;;;;;;10.27;3.80;;;;;;;17.66;52.79;99245.41;4974717;28;20219;-71
2022/10/03 05:32:10;;;;;;;8.40;3.10;;;;;;;17.66;52.50;99244.56;4974939;28;20263;-73
2022/10/03 05:34:54;;;;;;;13.07;2.90;;;;;;;17.59;51.83;99251.97;4974525;28;20184;-72
2022/10/03 05:37:43;;;;;;;6.50;2.47;;;;;;;17.45;52.47;99256.09;4974601;28;20223;-71
2022/10/03 05:40:19;;;;;;;7.47;2.93;;;;;;;17.82;59.09;99241.84;4972557;28;20262;-78
2022/10/03 05:43:08;;;;;;;3.13;1.87;;;;;;;18.08;51.12;99257.25;4974458;28;20199;-73
2022/10/03 05:45:47;;;;;;;6.13;2.90;;;;;;;18.30;55.66;99254.56;4975380;28;20204;-79
2022/10/03 05:48:29;;;;;;;4.80;3.03;;;;;;;18.81;52.75;99251.34;4973837;28;20186;-73
2022/10/03 05:51:33;;;;;;;4.27;2.10;;;;;;;19.07;47.86;99261.31;4974689;28;20646;-79
2022/10/03 05:54:45;;;;;;;2.90;2.13;;;;;;;19.11;47.54;99259.72;4973934;28;20289;-75
2022/10/03 05:57:41;;;;;;;2.47;2.13;;;;;;;19.24;47.47;99257.41;4974139;28;20202;-75
2022/10/03 06:00:21;;;;;;;4.60;2.10;;;;;;;19.37;47.57;99245.41;4968487;28;20196;-75
2022/10/03 06:03:22;;;;;;;4.60;2.47;;;;;;;19.49;46.39;99248.72;4974765;28;20222;-76
2022/10/03 06:06:16;;;;;;;4.03;2.33;;;;;;;19.38;46.73;99237.06;4974539;28;20613;-71
2022/10/03 06:09:18;;;;;;;3.63;2.00;;;;;;;19.38;47.14;99241.63;4973449;28;20274;-81
2022/10/03 06:12:08;;;;;;;3.90;2.13;;;;;;;19.39;46.96;99259.41;4974237;28;20717;-78
2022/10/03 06:14:57;;;;;;;6.23;2.37;;;;;;;19.30;47.03;99242.13;4974668;28;20222;-73
2022/10/03 06:18:00;;;;;;;4.93;2.60;;;;;;;19.39;47.11;99246.78;4955018;28;20245;-74
2022/10/03 06:21:05;;;;;;;8.60;2.90;;;;;;;19.32;47.41;99242.69;4953155;28;20656;-77
2022/10/03 06:24:08;;;;;;;3.00;2.53;;;;;;;19.44;51.38;99246.00;4946042;28;20189;-70
2022/10/03 06:27:01;;;;;;;6.30;2.87;;;;;;;19.90;47.13;99237.91;4974158;28;20187;-73
2022/10/03 06:29:54;;;;;;;2.93;2.07;;;;;;;20.09;44.67;99243.69;4974110;28;20241;-73
2022/10/03 06:33:03;;;;;;;6.53;3.17;;;;;;;20.01;45.24;99254.97;4967130;28;20737;-73
2022/10/03 06:36:07;;;;;;;6.87;2.67;;;;;;;19.87;45.84;99254.63;4953133;28;20305;-75
2022/10/03 06:39:09;;;;;;;14.23;2.87;;;;;;;19.92;46.49;99249.25;4978163;28;20257;-74
2022/10/03 06:42:11;;;;;;;6.73;3.17;;;;;;;20.00;46.15;99254.16;4984070;28;20187;-70
2022/10/03 06:45:03;;;;;;;3.50;2.80;;;;;;;20.10;46.17;99234.53;4973490;28;20215;-69
2022/10/03 06:47:42;;;;;;;6.00;3.73;;;;;;;20.54;45.88;99247.38;4974081;28;20187;-77
2022/10/03 06:50:50;;;;;;;4.47;2.10;;;;;;;21.01;44.66;99247.22;4972667;28;20699;-77
2022/10/03 06:53:47;;;;;;;7.70;3.03;;;;;;;21.68;42.87;99236.09;4975807;28;20238;-78
2022/10/03 06:57:02;;;;;;;3.80;1.87;;;;;;;22.37;43.59;99229.63;4972911;28;20195;-71
2022/10/03 07:00:01;;;;;;;8.60;3.00;;;;;;;22.90;39.04;99233.38;4893292;29;20198;-71
2022/10/03 07:03:14;;;;;;;3.57;2.13;;;;;;;23.53;39.95;99233.13;4984849;28;20226;-73
2022/10/03 07:06:10;;;;;;;7.17;2.80;;;;;;;24.70;36.40;99243.19;4992523;28;20188;-71
2022/10/03 07:09:16;;;;;;;3.03;1.70;;;;;;;25.31;34.38;99226.75;4993155;28;20200;-73
2022/10/03 07:12:10;;;;;;;6.30;3.20;;;;;;;25.96;34.98;99238.41;4992922;28;20627;-73
2022/10/03 07:15:25;;;;;;;11.90;2.50;;;;;;;26.63;33.13;99232.09;4992530;28;20555;-75
2022/10/03 07:18:40;;;;;;;5.70;2.43;;;;;;;26.49;31.43;99239.44;4932897;29;20204;-73
2022/10/03 07:21:39;;;;;;;9.13;2.60;;;;;;;26.40;33.95;99223.00;4894516;29;20197;-75
2022/10/03 07:24:40;;;;;;;5.83;2.73;;;;;;;26.58;33.14;99230.25;4991159;28;20625;-72
2022/10/03 07:27:34;;;;;;;7.00;3.03;;;;;;;26.95;31.82;99229.16;4952969;28;20242;-71
2022/10/03 07:30:09;;;;;;;3.20;2.87;;;;;;;27.16;32.39;99230.28;4953677;28;20759;-73
2022/10/03 07:32:57;;;;;;;7.87;2.23;;;;;;;27.45;32.10;99222.47;4964738;28;20729;-75
2022/10/03 07:39:01;;;;;;;3.37;3.00;;;;;;;28.03;28.67;99223.09;4973066;28;20750;-74
2022/10/03 07:41:59;;;;;;;4.83;3.40;;;;;;;27.55;28.94;99222.19;4973407;28;20199;-82
2022/10/03 07:45:00;;;;;;;3.63;2.83;;;;;;;27.73;30.94;99213.00;4973189;28;20655;-76
2022/10/03 07:48:16;;;;;;;3.60;3.03;;;;;;;27.91;29.97;99222.88;4969963;28;20211;-75
2022/10/03 07:51:08;;;;;;;5.83;2.93;;;;;;;27.80;28.92;99218.78;4951682;28;20281;-72
2022/10/03 07:54:16;;;;;;;6.63;3.00;;;;;;;27.53;29.70;99213.53;4965063;28;20698;-76
2022/10/03 07:57:12;;;;;;;3.10;2.80;;;;;;;27.41;29.91;99224.22;4976933;28;20191;-76
2022/10/03 08:00:08;;;;;;;5.27;3.10;;;;;;;27.46;30.47;99229.53;4971487;28;20698;-76
2022/10/03 08:03:11;;;;;;;4.40;2.67;;;;;;;27.63;30.13;99224.16;4971851;28;20192;-77
2022/10/03 08:05:51;;;;;;;3.93;2.60;;;;;;;27.41;30.27;99226.94;4956914;28;20187;-74
2022/10/03 08:08:49;;;;;;;3.47;2.80;;;;;;;27.30;30.15;99225.56;4957276;28;20286;-76
2022/10/03 08:11:46;;;;;;;6.43;2.60;;;;;;;27.28;30.02;99222.38;4956924;28;20715;-76
2022/10/03 08:14:34;;;;;;;4.43;2.07;;;;;;;27.06;29.94;99225.06;4956648;28;20255;-77
2022/10/03 08:17:38;;;;;;;6.27;2.43;;;;;;;26.79;30.64;99233.34;4956966;28;20548;-77
2022/10/03 08:20:32;;;;;;;3.77;2.30;;;;;;;26.64;31.35;99237.22;4956722;28;20255;-77
2022/10/03 08:23:35;;;;;;;2.40;1.60;;;;;;;26.49;30.61;99233.97;4956929;28;20239;-77
2022/10/03 08:26:16;;;;;;;3.10;1.30;;;;;;;26.26;31.31;99235.03;4969329;28;20571;-73
2022/10/03 08:28:59;;;;;;;14.57;1.90;;;;;;;26.29;31.89;99232.50;4976750;28;20274;-74
2022/10/03 08:31:48;;;;;;;5.13;1.77;;;;;;;26.25;32.06;99233.44;4976121;28;20215;-71
2022/10/03 08:34:42;;;;;;;5.67;1.90;;;;;;;26.09;31.40;99219.31;4977086;28;20219;-75
2022/10/03 08:38:00;;;;;;;8.93;1.13;;;;;;;25.96;31.54;99222.84;4976321;28;20270;-75
2022/10/03 08:41:11;;;;;;;3.53;1.33;;;;;;;25.79;32.49;99227.22;4897759;29;20757;-73
2022/10/03 08:44:15;;;;;;;11.73;2.27;;;;;;;25.76;33.32;99230.59;4910982;29;20212;-74
2022/10/03 08:47:30;;;;;;;4.83;1.73;;;;;;;25.64;33.71;99227.53;4976302;28;20191;-74
2022/10/03 08:50:48;;;;;;;2.10;1.23;;;;;;;25.28;34.32;99232.81;4975539;28;20215;-72
2022/10/03 08:53:48;;;;;;;13.27;1.33;;;;;;;25.08;33.25;99235.00;4916089;29;20772;-73
2022/10/03 08:56:21;;;;;;;3.23;1.20;;;;;;;24.75;32.85;99236.88;4907160;29;20262;-73
2022/10/03 08:59:17;;;;;;;8.97;1.30;;;;;;;24.44;34.03;99238.34;4958935;28;20230;-78
2022/10/03 09:02:06;;;;;;;3.97;1.03;;;;;;;24.15;34.33;99249.34;4975733;28;20210;-75
2022/10/03 09:05:22;;;;;;;3.57;1.30;;;;;;;24.02;34.50;99244.56;4975722;28;20203;-71
2022/10/03 09:08:15;;;;;;;2.80;1.33;;;;;;;23.97;34.85;99243.84;4976825;28;20198;-72
2022/10/03 09:11:05;;;;;;;6.60;1.53;;;;;;;23.98;35.75;99261.75;4975551;28;20284;-73
2022/10/03 09:14:17;;;;;;;6.17;1.60;;;;;;;23.57;36.54;99255.88;4975983;28;20189;-72
2022/10/03 09:17:00;;;;;;;5.93;1.20;;;;;;;23.75;36.08;99263.31;4973941;28;20258;-72
2022/10/03 09:20:08;;;;;;;4.97;1.57;;;;;;;23.85;38.57;99284.91;4975494;28;20190;-72
2022/10/03 09:22:57;;;;;;;6.23;1.97;;;;;;;24.37;37.32;99271.31;4975294;28;20195;-68
2022/10/03 09:25:40;;;;;;;9.83;4.67;;;;;;;24.70;37.19;99270.34;4974814;28;20745;-69
2022/10/03 09:28:48;;;;;;;12.63;5.27;;;;;;;24.79;36.50;99279.44;4975388;28;20213;-71
2022/10/03 09:31:41;;;;;;;3.40;3.10;;;;;;;24.89;35.97;99278.50;4952459;28;20234;-70
2022/10/03 09:34:37;;;;;;;7.63;3.10;;;;;;;24.52;37.39;99283.88;4975105;28;20234;-71
2022/10/03 09:37:35;;;;;;;4.80;2.67;;;;;;;24.28;37.61;99278.47;4974478;28;20654;-73
2022/10/03 09:40:54;;;;;;;4.83;2.67;;;;;;;23.87;38.36;99271.03;4967954;28;20206;-81
2022/10/03 09:43:52;;;;;;;4.10;2.67;;;;;;;23.55;39.89;99273.53;4973268;28;20667;-71
2022/10/03 09:47:22;;;;;;;3.33;2.50;;;;;;;23.65;40.71;99285.09;4974562;28;20217;-79
2022/10/03 09:50:29;;;;;;;6.53;1.90;;;;;;;23.50;42.28;99282.53;4945748;28;20197;-77
2022/10/03 09:53:24;;;;;;;5.03;2.00;;;;;;;23.35;43.46;99274.53;4974423;28;20232;-73
2022/10/03 09:56:19;;;;;;;7.43;2.10;;;;;;;22.90;44.80;99272.13;4973368;28;20195;-76
2022/10/03 09:59:06;;;;;;;2.47;1.67;;;;;;;22.83;45.76;99271.63;4974429;28;20652;-66
2022/10/03 10:01:41;;;;;;;4.47;1.70;;;;;;;22.43;46.95;99262.91;4983855;28;20191;-68
2022/10/03 10:04:50;;;;;;;5.83;2.33;;;;;;;22.48;47.19;99274.53;4994174;28;20186;-67
2022/10/03 10:07:49;;;;;;;6.73;1.77;;;;;;;22.31;48.00;99276.75;4985984;28;20191;-69
2022/10/03 10:10:51;;;;;;;10.23;1.87;;;;;;;21.98;49.25;99280.13;4993468;28;20226;-70
2022/10/03 10:13:51;;;;;;;5.80;1.30;;;;;;;21.60;49.76;99286.09;4976612;28;20294;-69
2022/10/03 10:16:37;;;;;;;8.13;1.30;;;;;;;21.48;50.27;99293.66;4953188;28;20727;-65
2022/10/03 10:19:24;;;;;;;2.60;1.30;;;;;;;21.53;50.13;99287.47;4954769;28;20196;-67
2022/10/03 10:22:10;;;;;;;2.83;1.30;;;;;;;21.47;50.60;99300.16;4953759;28;20660;-67
2022/10/03 10:25:14;;;;;;;20.33;1.83;;;;;;;21.24;50.54;99306.13;4955877;28;20192;-68
2022/10/03 10:28:22;;;;;;;3.13;0.90;;;;;;;21.02;51.11;99313.66;4973796;28;20192;-68
2022/10/03 10:31:24;;;;;;;0.90;0.90;;;;;;;20.66;52.25;99313.81;4973807;28;20290;-68
2022/10/03 10:34:38;;;;;;;4.53;1.30;;;;;;;20.35;53.11;99312.88;4950136;28;20230;-66
2022/10/03 10:37:53;;;;;;;7.80;1.43;;;;;;;20.26;53.89;99314.47;4974276;28;20187;-65
2022/10/03 10:41:06;;;;;;;6.20;1.20;;;;;;;20.22;54.28;99314.16;4912750;29;20213;-66
2022/10/03 10:44:04;;;;;;;5.90;1.40;;;;;;;20.10;54.65;99321.63;4978809;28;20188;-65
2022/10/03 10:47:12;;;;;;;5.50;1.20;;;;;;;19.93;55.10;99333.66;4975583;28;20195;-66
2022/10/03 10:50:15;;;;;;;3.30;1.17;;;;;;;19.75;55.80;99331.38;4980578;28;20198;-65
2022/10/03 10:53:19;;;;;;;11.13;1.40;;;;;;;19.73;58.12;99341.59;4983912;28;20288;-65
2022/10/03 10:56:26;;;;;;;4.00;1.10;;;;;;;20.17;57.74;99351.91;4980720;28;20187;-66
2022/10/03 10:59:49;;;;;;;12.53;1.43;;;;;;;20.25;59.25;99334.41;4982443;28;20184;-68
2022/10/03 11:03:07;;;;;;;3.23;1.43;;;;;;;20.15;63.83;99343.28;4982281;28;20199;-67
2022/10/03 11:05:46;;;;;;;8.67;1.70;;;;;;;20.13;69.72;99328.38;4978151;28;20212;-67
2022/10/03 11:08:51;;;;;;;4.80;2.20;;;;;;;19.92;70.12;99334.72;4985934;28;20183;-69
2022/10/03 11:12:24;;;;;;;5.00;2.00;;;;;;;19.86;72.47;99320.38;4960099;28;20756;-67
2022/10/03 11:15:26;;;;;;;3.37;2.93;;;;;;;19.77;74.19;99318.47;4969703;28;20198;-69
2022/10/03 11:18:35;;;;;;;3.63;2.13;;;;;;;19.89;73.72;99322.56;4981332;28;20255;-67
2022/10/03 11:21:34;;;;;;;9.07;3.17;;;;;;;19.91;73.37;99316.91;4982044;28;20203;-66
2022/10/03 11:24:37;;;;;;;2.63;2.37;;;;;;;19.94;73.27;99311.00;4973345;28;20195;-67
2022/10/03 11:27:30;;;;;;;2.07;1.90;;;;;;;19.96;73.02;99314.25;4953805;28;20742;-65
2022/10/03 11:30:18;;;;;;;6.23;2.17;;;;;;;20.00;74.02;99304.56;4954307;28;20200;-68
2022/10/03 11:33:23;;;;;;;2.30;2.10;;;;;;;19.92;74.90;99313.13;4976797;28;20226;-68
2022/10/03 11:36:27;;;;;;;2.00;1.60;;;;;;;19.80;73.45;99310.66;4973019;28;20223;-69
2022/10/03 11:39:03;;;;;;;5.23;1.80;;;;;;;19.87;74.19;99321.19;4972786;28;20201;-68
2022/10/03 11:41:41;;;;;;;3.57;1.70;;;;;;;19.75;73.30;99312.50;4973938;28;20257;-67
2022/10/03 11:44:21;;;;;;;3.93;1.83;;;;;;;19.83;74.41;99314.72;4973226;28;20632;-68
2022/10/03 11:47:11;;;;;;;2.67;1.50;;;;;;;19.82;74.50;99313.91;4973285;28;20191;-69
2022/10/03 11:50:23;;;;;;;1.80;1.70;;;;;;;19.79;74.28;99319.81;4972631;28;20729;-67
2022/10/03 11:53:13;;;;;;;3.83;2.40;;;;;;;19.83;74.76;99312.00;4972454;28;20238;-67
2022/10/03 11:55:50;;;;;;;2.87;1.90;;;;;;;20.07;74.30;99307.84;4960761;28;20223;-67
2022/10/03 11:58:37;;;;;;;2.57;1.83;;;;;;;20.04;73.50;99313.75;4972637;28;20279;-68
2022/10/03 12:01:25;;;;;;;2.60;1.67;;;;;;;20.05;72.10;99312.72;4973252;28;20188;-68
2022/10/03 12:04:00;;;;;;;2.23;1.77;;;;;;;20.06;72.50;99308.94;4973274;28;20184;-68
2022/10/03 12:09:47;;;;;;;3.17;2.93;;;;;;;20.00;72.06;99304.56;4972829;28;20680;-69
2022/10/03 12:12:27;;;;;;;3.40;3.10;;;;;;;20.05;72.67;99302.72;4973890;28;20261;-68
2022/10/03 12:14:59;;;;;;;3.57;3.27;;;;;;;20.23;70.68;99296.09;4972829;28;20209;-68
2022/10/03 12:17:32;;;;;;;7.70;4.23;;;;;;;20.50;70.80;99294.84;4973830;28;20191;-69
2022/10/03 12:20:05;;;;;;;4.13;2.90;;;;;;;20.70;70.94;99283.28;4972622;28;20239;-67
2022/10/03 12:22:52;;;;;;;2.40;2.17;;;;;;;20.70;67.66;99296.00;4972984;28;20648;-67
2022/10/03 12:25:23;;;;;;;3.80;2.27;;;;;;;20.82;67.63;99297.38;4972053;28;20255;-69
2022/10/03 12:28:03;;;;;;;2.67;2.10;;;;;;;21.06;67.27;99297.72;4973049;28;20250;-67
2022/10/03 12:30:39;;;;;;;3.10;2.37;;;;;;;21.23;67.28;99284.78;4972958;28;20620;-67
2022/10/03 12:33:26;;;;;;;2.80;2.47;;;;;;;21.33;65.19;99293.69;4973031;28;20195;-68
2022/10/03 12:36:02;;;;;;;2.07;1.97;;;;;;;21.48;63.29;99296.38;4955660;28;20670;-67
2022/10/03 12:38:46;;;;;;;2.10;2.00;;;;;;;21.55;62.52;99304.22;4959312;28;20191;-67
2022/10/03 12:41:24;;;;;;;1.80;1.70;;;;;;;21.52;59.94;99304.78;4976933;28;20250;-66
2022/10/03 12:44:09;;;;;;;2.27;1.63;;;;;;;21.46;61.15;99309.38;4976581;28;20575;-68
2022/10/03 12:46:43;;;;;;;1.83;1.60;;;;;;;21.33;59.15;99307.19;4975379;28;20610;-68
2022/10/03 12:49:18;;;;;;;2.07;1.40;;;;;;;21.43;58.50;99309.91;4976047;28;20254;-62
2022/10/03 12:51:54;;;;;;;2.30;1.67;;;;;;;21.47;60.11;99300.16;4975731;28;20277;-64
2022/10/03 12:54:38;;;;;;;1.10;1.10;;;;;;;21.57;58.19;99289.38;4989560;28;20195;-66
2022/10/03 12:57:31;;;;;;;2.00;1.87;;;;;;;21.56;57.64;99300.44;4991237;28;20554;-66
2022/10/03 13:00:05;;;;;;;3.83;1.30;;;;;;;21.28;56.80;99309.09;4978936;28;20254;-65
2022/10/03 13:02:37;;;;;;;1.50;1.40;;;;;;;21.37;56.48;99294.78;4994039;28;20193;-67
2022/10/03 13:05:30;;;;;;;2.30;1.83;;;;;;;21.34;58.53;99297.19;4993360;28;20199;-69
2022/10/03 13:08:02;;;;;;;1.83;1.20;;;;;;;21.19;58.50;99292.59;4975624;28;20255;-66
2022/10/03 13:10:41;;;;;;;1.40;1.40;;;;;;;21.07;58.38;99294.75;4973811;28;20183;-68
2022/10/03 13:13:23;;;;;;;2.00;1.60;;;;;;;21.11;58.61;99284.22;4967807;28;20334;-67
2022/10/03 13:16:21;;;;;;;1.40;1.40;;;;;;;21.14;58.21;99283.69;4971178;28;20254;-65
2022/10/03 13:18:55;;;;;;;2.80;1.40;;;;;;;21.22;57.62;99281.25;4942293;28;20242;-65
2022/10/03 13:21:33;;;;;;;5.13;1.27;;;;;;;21.40;58.10;99283.41;4974279;28;20714;-64
2022/10/03 13:24:06;;;;;;;2.93;1.67;;;;;;;21.44;56.49;99289.88;4975704;28;20198;-66
2022/10/03 13:26:48;;;;;;;1.70;1.60;;;;;;;21.33;55.58;99282.06;4973967;28;20623;-65
2022/10/03 13:29:25;;;;;;;3.70;1.67;;;;;;;21.41;55.14;99281.53;4975622;28;20188;-64
2022/10/03 13:32:18;;;;;;;1.47;1.37;;;;;;;21.56;54.20;99274.19;4975573;28;20214;-67